Terminal Aerodrome Forecast
Issued by NWS

Home | Current Version | Previous Version | Text Only | Print | Product List | Glossary On
Versions: 1 2 3 4 5 6 7 8 9 10 11 12 13 14 15
000
FTUS46 KOTX 192332
TAFMWH
TAF
KMWH 192332Z 2000/2024 01011KT P6SM SKC
     FM200200 01007KT P6SM SKC
     FM200500 02005KT P6SM SCT250
     FM201800 05007KT P6SM BKN250=

USA.gov is the U.S. government's official web portal to all federal, state and local government web resources and services.